Time;durP1;ratioP1;P1;durP2;ratioP2;P2;SDS_P1;SDS_P2;PMS_P1;PMS_P2;Temp;Humidity;BMP_temperature;BMP_pressure;BME280_temperature;BME280_humidity;BME280_pressure;Samples;Min_cycle;Max_cycle;Signal;HPM_P1;HPM_P2
2023/09/28 00:00:38;;;;;;;16.80;13.07;;;17.60;99.90;;;;;;5237797;28;20509;-53
2023/09/28 00:03:10;;;;;;;21.50;12.80;;;17.50;99.90;;;;;;5248588;28;20927;-50
2023/09/28 00:05:41;;;;;;;15.57;11.60;;;17.50;99.90;;;;;;5248991;28;20444;-50
2023/09/28 00:08:12;;;;;;;22.30;11.60;;;17.50;99.90;;;;;;5246368;28;21136;-49
2023/09/28 00:10:43;;;;;;;16.00;11.63;;;17.50;99.90;;;;;;5240115;28;20801;-51
2023/09/28 00:13:14;;;;;;;12.30;10.60;;;17.50;99.90;;;;;;5237289;28;20425;-50
2023/09/28 00:15:46;;;;;;;18.43;11.97;;;17.50;99.90;;;;;;5242039;28;20193;-50
2023/09/28 00:18:17;;;;;;;15.93;11.77;;;17.40;99.90;;;;;;5240886;28;20210;-49
2023/09/28 00:20:48;;;;;;;19.63;10.97;;;17.40;99.90;;;;;;5250434;28;20485;-50
2023/09/28 00:23:19;;;;;;;17.30;11.33;;;17.40;99.90;;;;;;5250811;28;20711;-51
2023/09/28 00:25:49;;;;;;;21.97;12.20;;;17.40;99.90;;;;;;5247354;28;20558;-51
2023/09/28 00:28:20;;;;;;;15.07;11.73;;;17.30;99.90;;;;;;5248906;28;20240;-51
2023/09/28 00:30:52;;;;;;;18.00;11.80;;;17.30;99.90;;;;;;5251002;28;20695;-50
2023/09/28 00:33:23;;;;;;;14.43;11.03;;;17.30;99.90;;;;;;5246985;28;20545;-50
2023/09/28 00:35:53;;;;;;;16.63;11.00;;;17.20;99.90;;;;;;5242131;28;20437;-50
2023/09/28 00:38:24;;;;;;;17.90;10.70;;;17.20;99.90;;;;;;5247287;28;20604;-50
2023/09/28 00:40:56;;;;;;;15.33;10.67;;;17.20;99.90;;;;;;5251227;28;20189;-50
2023/09/28 00:43:27;;;;;;;14.70;11.83;;;17.10;99.90;;;;;;5253081;28;20190;-50
2023/09/28 00:45:59;;;;;;;25.33;12.70;;;17.10;99.90;;;;;;5252303;28;20991;-51
2023/09/28 00:48:30;;;;;;;18.53;12.40;;;17.10;99.90;;;;;;5246996;28;20642;-50
2023/09/28 00:51:01;;;;;;;14.30;11.40;;;17.10;99.90;;;;;;5241791;28;20891;-49
2023/09/28 00:53:32;;;;;;;20.07;12.37;;;17.10;99.90;;;;;;5237409;28;20512;-50
2023/09/28 00:56:07;;;;;;;19.07;11.80;;;17.10;99.90;;;;;;5252090;28;20570;-50
2023/09/28 00:58:39;;;;;;;20.97;12.13;;;17.00;99.90;;;;;;5247825;28;20530;-49
2023/09/28 01:01:11;;;;;;;17.00;11.67;;;17.00;99.90;;;;;;5240745;28;20484;-49
2023/09/28 01:03:42;;;;;;;16.43;11.80;;;17.00;99.90;;;;;;5248757;28;20433;-50
2023/09/28 01:06:12;;;;;;;12.50;11.20;;;16.90;99.90;;;;;;5242925;28;20843;-51
2023/09/28 01:08:43;;;;;;;19.13;12.20;;;16.90;99.90;;;;;;5256624;28;20261;-49
2023/09/28 01:11:14;;;;;;;24.17;12.70;;;16.90;99.90;;;;;;5231403;28;20186;-49
2023/09/28 01:13:45;;;;;;;17.77;12.17;;;16.80;99.90;;;;;;5236485;28;20590;-49
2023/09/28 01:16:19;;;;;;;18.17;11.93;;;16.80;99.90;;;;;;5251236;28;20182;-49
2023/09/28 01:18:49;;;;;;;18.40;11.50;;;16.70;99.90;;;;;;5251183;28;20206;-49
2023/09/28 01:21:20;;;;;;;24.33;12.03;;;16.80;99.90;;;;;;5265484;28;20502;-50
2023/09/28 01:23:51;;;;;;;12.83;11.50;;;16.70;99.90;;;;;;5237836;28;20724;-51
2023/09/28 01:26:22;;;;;;;15.13;11.77;;;16.70;99.90;;;;;;5245020;28;20178;-50
2023/09/28 01:28:53;;;;;;;16.10;10.20;;;16.70;99.90;;;;;;5241124;28;20198;-51
2023/09/28 01:31:23;;;;;;;18.80;10.60;;;16.70;99.90;;;;;;5245359;28;20182;-50
2023/09/28 01:33:54;;;;;;;19.00;9.83;;;16.70;99.90;;;;;;5237553;28;20186;-50
2023/09/28 01:36:25;;;;;;;12.87;9.90;;;16.70;99.90;;;;;;5246615;28;20186;-51
2023/09/28 01:39:06;;;;;;;17.83;11.23;;;16.70;99.90;;;;;;5248561;28;20198;-50
2023/09/28 01:41:37;;;;;;;12.03;10.43;;;16.60;99.90;;;;;;5239436;28;20666;-50
2023/09/28 01:44:08;;;;;;;12.70;10.83;;;16.60;99.90;;;;;;5247906;28;20463;-50
2023/09/28 01:46:39;;;;;;;27.37;11.37;;;16.60;99.90;;;;;;5244147;28;20187;-49
2023/09/28 01:49:09;;;;;;;18.13;11.50;;;16.60;99.90;;;;;;5249356;28;20701;-48
2023/09/28 01:51:40;;;;;;;24.33;11.53;;;16.60;99.90;;;;;;5251862;28;20166;-49
2023/09/28 01:54:11;;;;;;;17.90;12.00;;;16.60;99.90;;;;;;5242959;28;20175;-49
2023/09/28 01:56:42;;;;;;;12.33;9.10;;;16.50;99.90;;;;;;5262426;28;20554;-49
2023/09/28 01:59:14;;;;;;;13.97;11.70;;;16.50;99.90;;;;;;5243798;28;20218;-49
2023/09/28 02:01:45;;;;;;;12.70;10.13;;;16.50;99.90;;;;;;5244085;28;20182;-50
2023/09/28 02:04:16;;;;;;;25.13;11.37;;;16.40;99.90;;;;;;5241495;28;20493;-49
2023/09/28 02:06:48;;;;;;;21.70;9.57;;;16.40;99.90;;;;;;5244180;28;20245;-49
2023/09/28 02:09:19;;;;;;;12.63;10.80;;;16.40;99.90;;;;;;5246557;28;20472;-50
2023/09/28 02:11:49;;;;;;;11.53;10.43;;;16.40;99.90;;;;;;5248597;28;20435;-49
2023/09/28 02:14:20;;;;;;;14.87;10.73;;;16.30;99.90;;;;;;5244541;28;20174;-50
2023/09/28 02:16:51;;;;;;;16.30;10.80;;;16.20;99.90;;;;;;5254520;28;20171;-50
2023/09/28 02:19:22;;;;;;;18.50;11.73;;;16.20;99.90;;;;;;5244552;28;20179;-51
2023/09/28 02:21:53;;;;;;;16.27;10.33;;;16.20;99.90;;;;;;5250523;28;20179;-50
2023/09/28 02:24:23;;;;;;;13.40;10.33;;;16.20;99.90;;;;;;5246531;28;20451;-49
2023/09/28 02:26:55;;;;;;;14.80;10.50;;;16.20;99.90;;;;;;5264559;28;20262;-50
2023/09/28 02:29:26;;;;;;;14.07;10.37;;;16.20;99.90;;;;;;5253406;28;20210;-50
2023/09/28 02:31:56;;;;;;;10.47;9.40;;;16.10;99.90;;;;;;5239622;28;20444;-50
2023/09/28 02:34:28;;;;;;;19.60;11.07;;;16.10;99.90;;;;;;5250256;28;20431;-50
2023/09/28 02:36:58;;;;;;;16.60;11.40;;;16.10;99.90;;;;;;5253328;28;20183;-50
2023/09/28 02:39:29;;;;;;;16.80;11.03;;;16.10;99.90;;;;;;5241020;28;20816;-50
2023/09/28 02:42:00;;;;;;;16.77;10.53;;;16.00;99.90;;;;;;5240296;28;20183;-49
2023/09/28 02:44:31;;;;;;;11.33;10.23;;;16.00;99.90;;;;;;5251739;28;20186;-50
2023/09/28 02:47:09;;;;;;;19.40;10.63;;;15.90;99.90;;;;;;5252403;28;20527;-50
2023/09/28 02:49:39;;;;;;;15.03;10.10;;;15.90;99.90;;;;;;5246046;28;20249;-49
2023/09/28 02:52:10;;;;;;;13.27;10.57;;;15.90;99.90;;;;;;5269326;28;20471;-49
2023/09/28 02:54:41;;;;;;;16.10;11.27;;;15.90;99.90;;;;;;5242752;28;20193;-49
2023/09/28 02:57:12;;;;;;;21.73;10.87;;;15.90;99.90;;;;;;5249603;28;20667;-49
2023/09/28 02:59:43;;;;;;;16.87;10.43;;;15.90;99.90;;;;;;5246550;28;20248;-49
2023/09/28 03:02:14;;;;;;;12.70;10.63;;;15.90;99.90;;;;;;5246981;28;20412;-50
2023/09/28 03:04:45;;;;;;;21.43;9.73;;;15.90;99.90;;;;;;5246078;28;20178;-48
2023/09/28 03:07:16;;;;;;;21.00;10.30;;;15.90;99.90;;;;;;5232355;28;20559;-49
2023/09/28 03:09:47;;;;;;;11.20;10.10;;;15.90;99.90;;;;;;5242046;28;20233;-49
2023/09/28 03:12:18;;;;;;;16.10;11.33;;;15.90;99.90;;;;;;5227782;28;20519;-50
2023/09/28 03:14:48;;;;;;;15.23;10.80;;;15.90;99.90;;;;;;5246731;28;20701;-49
2023/09/28 03:17:19;;;;;;;10.37;9.33;;;15.90;99.90;;;;;;5245494;28;20210;-49
2023/09/28 03:19:50;;;;;;;13.53;10.80;;;15.80;99.90;;;;;;5240792;28;20189;-50
2023/09/28 03:22:21;;;;;;;15.10;10.17;;;15.80;99.90;;;;;;5240041;28;20190;-49
2023/09/28 03:24:52;;;;;;;12.43;9.67;;;15.70;99.90;;;;;;5239857;28;20433;-49
2023/09/28 03:27:22;;;;;;;20.13;10.97;;;15.70;99.90;;;;;;5248411;28;20729;-50
2023/09/28 03:29:53;;;;;;;13.83;10.83;;;15.70;99.90;;;;;;5248602;28;20207;-50
2023/09/28 03:32:24;;;;;;;14.10;10.97;;;15.70;99.90;;;;;;5249759;28;20277;-49
2023/09/28 03:34:54;;;;;;;19.40;11.20;;;15.60;99.90;;;;;;5250090;28;20182;-49
2023/09/28 03:37:26;;;;;;;14.97;11.60;;;15.60;99.90;;;;;;5242158;28;20577;-49
2023/09/28 03:40:00;;;;;;;14.70;10.30;;;15.60;99.90;;;;;;5248695;28;20178;-49
2023/09/28 03:42:31;;;;;;;15.17;10.97;;;15.60;99.90;;;;;;5243127;28;20433;-49
2023/09/28 03:45:03;;;;;;;14.60;9.73;;;15.60;99.90;;;;;;5234531;28;20429;-50
2023/09/28 03:47:37;;;;;;;11.47;10.00;;;15.50;99.90;;;;;;5247641;28;20202;-50
2023/09/28 03:50:10;;;;;;;19.23;10.60;;;15.50;99.90;;;;;;5243112;28;20598;-49
2023/09/28 03:52:42;;;;;;;12.10;10.30;;;15.50;99.90;;;;;;5242335;28;20810;-50
2023/09/28 03:55:24;;;;;;;15.50;10.43;;;15.40;99.90;;;;;;5241028;28;20437;-50
2023/09/28 03:58:01;;;;;;;14.60;10.47;;;15.40;99.90;;;;;;5238002;28;20480;-50
2023/09/28 04:00:32;;;;;;;17.80;11.07;;;15.40;99.90;;;;;;5248946;28;20470;-49
2023/09/28 04:03:03;;;;;;;13.77;11.03;;;15.40;99.90;;;;;;5243765;28;20476;-49
2023/09/28 04:05:34;;;;;;;18.50;11.57;;;15.40;99.90;;;;;;5246205;28;20167;-49
2023/09/28 04:08:08;;;;;;;17.87;10.70;;;15.30;99.90;;;;;;5242743;28;20486;-48
2023/09/28 04:10:39;;;;;;;13.33;11.00;;;15.40;99.90;;;;;;5247758;28;20182;-49
2023/09/28 04:13:10;;;;;;;21.40;11.50;;;15.30;99.90;;;;;;5248520;28;20519;-49
2023/09/28 04:15:41;;;;;;;19.00;12.07;;;15.30;99.90;;;;;;5238797;28;20527;-48
2023/09/28 04:18:11;;;;;;;17.10;11.50;;;15.30;99.90;;;;;;5244400;28;20558;-50
2023/09/28 04:20:42;;;;;;;19.43;11.90;;;15.30;99.90;;;;;;5243526;28;20202;-50
2023/09/28 04:23:13;;;;;;;18.00;10.47;;;15.30;99.90;;;;;;5240468;28;20193;-49
2023/09/28 04:25:44;;;;;;;22.37;11.33;;;15.30;99.90;;;;;;5250455;28;20190;-49
2023/09/28 04:28:14;;;;;;;14.17;10.20;;;15.30;99.90;;;;;;5244120;28;20219;-50
2023/09/28 04:30:45;;;;;;;16.43;10.20;;;15.30;99.90;;;;;;5243459;28;20178;-51
2023/09/28 04:33:16;;;;;;;16.60;11.43;;;15.30;99.90;;;;;;5239827;28;20215;-49
2023/09/28 04:35:47;;;;;;;13.80;10.80;;;15.20;99.90;;;;;;5252473;28;20631;-49
2023/09/28 04:38:17;;;;;;;19.17;10.53;;;15.20;99.90;;;;;;5240756;28;20437;-49
2023/09/28 04:40:48;;;;;;;13.10;10.43;;;15.20;99.90;;;;;;5243839;28;20183;-51
2023/09/28 04:43:19;;;;;;;23.93;10.43;;;15.20;99.90;;;;;;5246279;28;20543;-49
2023/09/28 04:45:50;;;;;;;35.83;10.63;;;15.20;99.90;;;;;;5244664;28;20574;-49
2023/09/28 04:48:21;;;;;;;12.43;10.13;;;15.20;99.90;;;;;;5257756;28;20504;-51
2023/09/28 04:50:53;;;;;;;22.87;11.10;;;15.10;99.90;;;;;;5243582;28;20177;-49
2023/09/28 04:53:23;;;;;;;18.90;11.37;;;15.20;99.90;;;;;;5242899;28;20181;-49
2023/09/28 04:55:54;;;;;;;20.10;10.73;;;15.20;99.90;;;;;;5242358;28;20960;-49
2023/09/28 04:58:25;;;;;;;13.50;10.60;;;15.20;99.90;;;;;;5250135;28;20304;-48
2023/09/28 05:00:56;;;;;;;17.77;11.77;;;15.20;99.90;;;;;;5250319;28;20246;-49
2023/09/28 05:03:27;;;;;;;18.70;10.40;;;15.10;99.90;;;;;;5238715;28;20457;-49
2023/09/28 05:05:58;;;;;;;15.47;11.23;;;15.10;99.90;;;;;;5246655;28;20269;-49
2023/09/28 05:08:29;;;;;;;14.67;10.60;;;15.20;99.90;;;;;;5242050;28;20237;-51
2023/09/28 05:11:01;;;;;;;21.87;12.73;;;15.20;99.90;;;;;;5234285;28;20480;-48
2023/09/28 05:13:32;;;;;;;19.27;11.00;;;15.20;99.90;;;;;;5246376;28;20436;-49
2023/09/28 05:16:03;;;;;;;16.37;11.10;;;15.20;99.90;;;;;;5249910;28;20424;-49
2023/09/28 05:18:35;;;;;;;15.60;10.93;;;15.20;99.90;;;;;;5240210;28;20245;-48
2023/09/28 05:21:06;;;;;;;15.03;9.93;;;15.30;99.90;;;;;;5242450;28;20449;-49
2023/09/28 05:23:37;;;;;;;21.47;10.90;;;15.30;99.90;;;;;;5240176;28;20459;-48
2023/09/28 05:26:08;;;;;;;13.50;10.33;;;15.40;99.90;;;;;;5243551;28;20562;-49
2023/09/28 05:28:38;;;;;;;14.33;10.30;;;15.50;99.90;;;;;;5232280;28;20206;-48
2023/09/28 05:31:09;;;;;;;18.33;10.47;;;15.60;99.90;;;;;;5243573;28;20447;-48
2023/09/28 05:33:41;;;;;;;16.30;10.80;;;15.70;99.90;;;;;;5239379;28;20220;-49
2023/09/28 05:36:12;;;;;;;17.00;11.70;;;15.80;99.90;;;;;;5238473;28;20194;-49
2023/09/28 05:38:43;;;;;;;21.40;12.07;;;16.10;99.90;;;;;;5235474;28;20448;-50
2023/09/28 05:41:14;;;;;;;14.80;10.73;;;16.60;99.90;;;;;;5239715;28;20212;-50
2023/09/28 05:43:45;;;;;;;12.83;10.60;;;16.60;99.90;;;;;;5240276;28;20190;-48
2023/09/28 05:46:16;;;;;;;18.67;10.50;;;16.50;99.90;;;;;;5244726;28;20213;-50
2023/09/28 05:48:47;;;;;;;15.60;10.57;;;16.50;99.90;;;;;;5244454;28;20999;-52
2023/09/28 05:51:18;;;;;;;19.87;11.43;;;16.50;99.90;;;;;;5244931;28;20555;-49
2023/09/28 05:53:52;;;;;;;22.97;11.40;;;16.60;99.90;;;;;;5250353;28;20409;-49
2023/09/28 05:56:23;;;;;;;16.17;11.20;;;16.80;99.90;;;;;;5245021;28;20185;-48
2023/09/28 05:58:55;;;;;;;27.03;11.40;;;16.70;99.90;;;;;;5247339;28;20841;-50
2023/09/28 06:01:29;;;;;;;16.03;10.37;;;16.70;99.90;;;;;;5236439;28;20593;-50
2023/09/28 06:04:00;;;;;;;20.40;10.47;;;16.80;99.90;;;;;;5240635;28;20447;-50
2023/09/28 06:06:30;;;;;;;21.30;11.27;;;16.80;99.90;;;;;;5257197;28;20797;-52
2023/09/28 06:09:01;;;;;;;20.77;12.00;;;17.10;99.90;;;;;;5233630;28;20211;-49
2023/09/28 06:11:32;;;;;;;14.67;11.13;;;17.40;99.90;;;;;;5248877;28;20704;-49
2023/09/28 06:14:03;;;;;;;15.47;11.10;;;18.50;99.90;;;;;;5233918;28;20209;-51
2023/09/28 06:16:36;;;;;;;16.23;9.90;;;20.00;99.90;;;;;;5238252;28;20436;-50
2023/09/28 06:19:07;;;;;;;13.97;8.30;;;21.70;99.90;;;;;;5233430;28;20260;-48
2023/09/28 06:21:41;;;;;;;14.77;9.20;;;23.40;99.90;;;;;;5248473;28;20432;-52
2023/09/28 06:24:12;;;;;;;19.20;9.53;;;25.00;96.60;;;;;;5256107;28;20202;-50
2023/09/28 06:26:42;;;;;;;11.70;8.10;;;26.00;90.70;;;;;;5243605;28;20975;-48
2023/09/28 06:29:13;;;;;;;12.77;9.47;;;26.50;80.60;;;;;;5244144;28;20252;-51
2023/09/28 06:31:47;;;;;;;13.10;10.10;;;27.20;75.80;;;;;;5241179;28;20230;-50
2023/09/28 06:34:17;;;;;;;17.47;8.63;;;27.60;71.50;;;;;;5239958;28;20191;-51
2023/09/28 06:36:48;;;;;;;21.50;9.40;;;28.00;67.80;;;;;;5243241;28;20425;-49
2023/09/28 06:39:19;;;;;;;13.90;8.60;;;28.40;64.90;;;;;;5245637;28;20219;-51
2023/09/28 06:41:50;;;;;;;10.47;7.13;;;29.00;62.30;;;;;;5229035;28;20183;-49
2023/09/28 06:44:21;;;;;;;19.17;9.67;;;29.50;59.60;;;;;;5262459;28;20812;-49
2023/09/28 06:46:51;;;;;;;11.57;7.87;;;30.20;56.50;;;;;;5244334;28;20199;-52
2023/09/28 06:49:22;;;;;;;11.60;8.17;;;30.60;55.10;;;;;;5246501;28;20238;-53
2023/09/28 06:51:53;;;;;;;20.27;8.63;;;31.20;52.80;;;;;;5243018;28;20200;-49
2023/09/28 06:54:24;;;;;;;8.53;7.17;;;31.50;51.60;;;;;;5264087;28;20521;-50
2023/09/28 06:56:55;;;;;;;18.20;8.50;;;31.90;50.00;;;;;;5243261;28;20785;-49
2023/09/28 06:59:27;;;;;;;14.27;7.93;;;32.20;48.50;;;;;;5251201;28;20456;-49
2023/09/28 07:01:58;;;;;;;13.00;7.60;;;32.00;48.50;;;;;;5234535;28;20436;-51
2023/09/28 07:04:29;;;;;;;15.13;8.00;;;32.30;47.90;;;;;;5250757;28;20197;-52
2023/09/28 07:07:00;;;;;;;19.43;8.30;;;32.80;46.60;;;;;;5249686;28;20188;-50
2023/09/28 07:09:32;;;;;;;10.07;8.00;;;33.10;45.70;;;;;;5245690;28;20457;-51
2023/09/28 07:12:04;;;;;;;30.90;8.40;;;33.10;45.50;;;;;;5242064;28;20596;-49
2023/09/28 07:14:34;;;;;;;11.13;8.10;;;33.50;44.20;;;;;;5250076;28;20462;-49
2023/09/28 07:17:05;;;;;;;12.73;7.50;;;33.40;44.10;;;;;;5234718;28;20429;-51
2023/09/28 07:19:36;;;;;;;10.27;7.37;;;33.50;43.80;;;;;;5258802;28;20185;-51
2023/09/28 07:22:07;;;;;;;15.00;7.73;;;33.60;43.70;;;;;;5247281;28;20183;-51
2023/09/28 07:24:38;;;;;;;23.67;9.27;;;33.40;43.60;;;;;;5260503;28;20255;-49
2023/09/28 07:27:09;;;;;;;10.70;7.57;;;33.20;43.90;;;;;;5246875;28;20588;-52
2023/09/28 07:29:39;;;;;;;14.47;8.17;;;33.30;43.70;;;;;;5249792;28;20206;-51
2023/09/28 07:32:10;;;;;;;15.80;7.80;;;33.40;43.50;;;;;;5241161;28;20268;-50
2023/09/28 07:34:42;;;;;;;17.73;8.27;;;33.30;43.50;;;;;;5239283;28;20190;-50
2023/09/28 07:37:13;;;;;;;12.37;8.37;;;33.20;43.20;;;;;;5252284;28;20198;-50
2023/09/28 07:39:43;;;;;;;17.47;7.97;;;32.70;44.10;;;;;;5245487;28;20460;-49
2023/09/28 07:42:14;;;;;;;10.73;8.00;;;32.40;44.70;;;;;;5240888;28;20225;-50
2023/09/28 07:44:47;;;;;;;13.13;9.23;;;31.80;46.10;;;;;;5246609;28;20182;-49
2023/09/28 07:47:19;;;;;;;10.10;8.50;;;31.30;47.20;;;;;;5245332;28;20207;-49
2023/09/28 07:49:52;;;;;;;12.63;8.43;;;30.90;48.20;;;;;;5236067;28;20467;-48
2023/09/28 07:52:23;;;;;;;8.80;7.40;;;30.00;49.80;;;;;;5241748;28;20489;-51
2023/09/28 07:54:55;;;;;;;9.87;7.80;;;29.20;51.30;;;;;;5243651;28;20436;-50
2023/09/28 07:57:26;;;;;;;18.73;8.57;;;28.40;53.40;;;;;;5245446;28;20205;-49
2023/09/28 07:59:57;;;;;;;14.87;9.30;;;27.60;54.70;;;;;;5239905;28;20445;-49
2023/09/28 08:02:28;;;;;;;19.00;8.43;;;26.90;56.00;;;;;;5247452;28;20854;-50
2023/09/28 08:04:59;;;;;;;13.27;8.57;;;26.30;57.30;;;;;;5247848;28;20182;-52
2023/09/28 08:07:33;;;;;;;13.50;8.80;;;25.50;59.20;;;;;;5234938;28;20199;-50
2023/09/28 08:10:05;;;;;;;13.20;9.30;;;24.70;61.30;;;;;;5249287;28;20205;-49
2023/09/28 08:12:37;;;;;;;9.90;7.67;;;24.30;63.40;;;;;;5246514;28;20417;-48
2023/09/28 08:15:08;;;;;;;15.97;8.00;;;24.00;64.90;;;;;;5238663;28;20419;-50
2023/09/28 08:17:41;;;;;;;13.93;8.30;;;23.80;66.20;;;;;;5246289;28;20570;-50
2023/09/28 08:20:11;;;;;;;12.10;8.80;;;23.70;67.40;;;;;;5248704;28;20447;-50
2023/09/28 08:22:42;;;;;;;13.53;9.73;;;23.50;68.80;;;;;;5243855;28;20496;-50
2023/09/28 08:25:14;;;;;;;11.00;7.93;;;23.40;69.90;;;;;;5249430;28;20568;-51
2023/09/28 08:27:44;;;;;;;10.23;7.70;;;23.20;71.10;;;;;;5254460;28;20456;-51
2023/09/28 08:30:15;;;;;;;14.60;9.83;;;23.10;72.80;;;;;;5236418;28;21034;-51
2023/09/28 08:32:47;;;;;;;10.37;8.67;;;22.90;74.00;;;;;;5246122;28;20198;-51
2023/09/28 08:35:18;;;;;;;13.77;10.20;;;22.90;75.80;;;;;;5243974;28;20257;-50
2023/09/28 08:37:48;;;;;;;18.03;10.77;;;23.00;76.90;;;;;;5248324;28;20540;-51
2023/09/28 08:40:20;;;;;;;12.47;9.40;;;22.80;78.50;;;;;;5244763;28;20589;-51
2023/09/28 08:42:51;;;;;;;10.20;8.03;;;22.70;80.50;;;;;;5248506;28;20186;-50
2023/09/28 08:45:23;;;;;;;19.03;8.33;;;22.70;82.40;;;;;;5246608;28;20442;-51
2023/09/28 08:47:56;;;;;;;12.17;8.00;;;22.70;84.10;;;;;;5244610;28;20531;-53
2023/09/28 08:50:35;;;;;;;11.90;8.67;;;22.80;85.20;;;;;;5244227;28;20464;-50
2023/09/28 08:53:07;;;;;;;24.20;8.30;;;22.90;86.40;;;;;;5249724;28;20423;-51
2023/09/28 08:55:38;;;;;;;13.87;9.60;;;22.90;87.40;;;;;;5238522;28;20775;-50
2023/09/28 08:58:12;;;;;;;10.07;7.57;;;23.00;88.40;;;;;;5247216;28;20464;-50
2023/09/28 09:00:43;;;;;;;12.90;9.00;;;23.10;90.00;;;;;;5238874;28;20461;-50
2023/09/28 09:03:16;;;;;;;14.00;8.93;;;23.20;89.80;;;;;;5236782;28;20429;-50
2023/09/28 09:05:50;;;;;;;10.83;7.60;;;23.30;90.10;;;;;;5248741;28;20435;-52
2023/09/28 09:08:22;;;;;;;10.40;9.17;;;23.30;90.40;;;;;;5248416;28;20460;-50
2023/09/28 09:10:54;;;;;;;8.80;7.90;;;23.50;90.50;;;;;;5248559;28;20436;-51
2023/09/28 09:13:26;;;;;;;8.43;7.07;;;23.30;91.00;;;;;;5257711;28;20521;-51
2023/09/28 09:15:57;;;;;;;7.80;7.10;;;23.30;91.40;;;;;;5248158;28;20427;-50
2023/09/28 09:18:28;;;;;;;16.97;9.50;;;23.40;91.70;;;;;;5243197;28;20484;-51
2023/09/28 09:21:00;;;;;;;6.67;6.07;;;23.50;92.10;;;;;;5242896;28;20212;-50
2023/09/28 09:23:32;;;;;;;9.37;7.30;;;23.60;92.30;;;;;;5229856;28;20455;-51
2023/09/28 09:26:03;;;;;;;13.30;7.50;;;23.70;92.30;;;;;;5221304;28;20437;-52
2023/09/28 09:28:43;;;;;;;13.60;8.50;;;23.80;92.30;;;;;;5262457;28;20468;-53
2023/09/28 09:31:14;;;;;;;9.53;6.70;;;23.90;91.80;;;;;;5245111;28;20558;-49
2023/09/28 09:33:45;;;;;;;8.60;7.67;;;23.80;92.10;;;;;;5245309;28;20555;-50
2023/09/28 09:36:18;;;;;;;12.03;6.17;;;23.90;92.70;;;;;;5229157;28;20424;-50
2023/09/28 09:38:52;;;;;;;10.43;7.50;;;23.90;92.70;;;;;;5240369;28;20203;-50
2023/09/28 09:41:22;;;;;;;12.60;7.40;;;24.00;92.50;;;;;;5237496;28;20494;-50
2023/09/28 09:43:54;;;;;;;11.80;7.10;;;24.00;92.20;;;;;;5243767;28;20433;-51
2023/09/28 09:46:26;;;;;;;9.27;7.00;;;24.00;92.40;;;;;;5260557;28;20574;-52
2023/09/28 09:48:58;;;;;;;14.10;6.80;;;24.10;92.20;;;;;;5248039;28;20566;-51
2023/09/28 09:51:30;;;;;;;8.33;7.53;;;24.10;92.40;;;;;;5263429;28;20641;-50
2023/09/28 09:54:01;;;;;;;7.73;6.90;;;24.10;92.40;;;;;;5239750;28;20444;-50
2023/09/28 09:56:35;;;;;;;16.13;7.67;;;24.10;92.70;;;;;;5244221;28;20442;-50
2023/09/28 09:59:07;;;;;;;17.07;8.00;;;24.10;92.60;;;;;;5226874;28;20237;-50
2023/09/28 10:01:40;;;;;;;11.93;6.37;;;24.10;92.60;;;;;;5238370;28;21017;-50
2023/09/28 10:04:12;;;;;;;12.27;9.20;;;24.10;92.60;;;;;;5249580;28;20429;-52
2023/09/28 10:06:48;;;;;;;12.80;7.63;;;24.10;92.60;;;;;;5249063;28;20424;-51
2023/09/28 10:09:20;;;;;;;9.27;7.27;;;24.20;92.80;;;;;;5246007;28;20944;-51
2023/09/28 10:11:52;;;;;;;11.60;5.80;;;24.30;92.80;;;;;;5247285;28;20451;-51
2023/09/28 10:14:25;;;;;;;7.97;5.93;;;24.40;92.50;;;;;;5248287;28;20439;-51
2023/09/28 10:16:59;;;;;;;12.83;5.37;;;24.40;92.20;;;;;;5238810;28;20928;-51
2023/09/28 10:19:31;;;;;;;5.70;5.00;;;24.40;92.00;;;;;;5247494;28;20443;-50
2023/09/28 10:22:01;;;;;;;6.00;5.10;;;24.50;91.90;;;;;;5247807;28;20440;-51
2023/09/28 10:24:34;;;;;;;9.20;5.80;;;24.60;91.50;;;;;;5252261;28;20779;-52
2023/09/28 10:27:10;;;;;;;5.93;5.20;;;24.60;91.00;;;;;;5248134;28;20214;-52
2023/09/28 10:29:41;;;;;;;5.50;4.97;;;24.60;91.40;;;;;;5247514;28;20468;-51
2023/09/28 10:32:31;;;;;;;5.20;4.80;;;24.70;91.40;;;;;;5249251;28;20492;-51
2023/09/28 10:35:31;;;;;;;12.50;6.40;;;24.70;91.20;;;;;;5240667;28;20241;-52
2023/09/28 10:38:18;;;;;;;8.23;4.70;;;24.60;91.20;;;;;;5243029;28;20562;-51
2023/09/28 10:41:05;;;;;;;7.57;4.60;;;24.60;89.70;;;;;;5264536;28;20577;-51
2023/09/28 10:43:42;;;;;;;8.97;5.60;;;24.70;88.80;;;;;;5248575;28;20431;-52
2023/09/28 10:46:14;;;;;;;11.40;6.70;;;24.80;88.80;;;;;;5249468;28;20482;-51
2023/09/28 10:48:46;;;;;;;13.33;7.00;;;24.90;87.70;;;;;;5242123;28;20600;-51
2023/09/28 10:51:18;;;;;;;6.43;5.63;;;24.90;85.90;;;;;;5239015;28;20442;-51
2023/09/28 10:53:49;;;;;;;6.67;4.70;;;24.90;85.00;;;;;;5240155;28;20440;-50
2023/09/28 10:56:21;;;;;;;5.80;4.87;;;24.80;84.50;;;;;;5252382;28;20441;-51
2023/09/28 10:58:56;;;;;;;19.47;6.50;;;24.80;85.30;;;;;;5243431;28;20213;-51
2023/09/28 11:01:28;;;;;;;13.40;8.60;;;24.80;84.80;;;;;;5241377;28;20437;-51
2023/09/28 11:03:59;;;;;;;10.23;6.27;;;24.80;84.40;;;;;;5247100;28;20412;-51
2023/09/28 11:06:30;;;;;;;9.67;6.40;;;24.80;84.30;;;;;;5254144;28;20448;-53
2023/09/28 11:09:02;;;;;;;6.00;4.67;;;24.90;84.10;;;;;;5250947;28;20539;-52
2023/09/28 11:11:33;;;;;;;7.97;5.97;;;25.00;83.00;;;;;;5248335;28;20477;-51
2023/09/28 11:14:05;;;;;;;5.07;4.53;;;24.90;82.60;;;;;;5251751;28;20474;-51
2023/09/28 11:16:38;;;;;;;4.67;4.27;;;25.00;83.10;;;;;;5241375;28;20847;-51
2023/09/28 11:19:09;;;;;;;6.10;4.80;;;25.00;82.60;;;;;;5244164;28;20455;-50
2023/09/28 11:21:44;;;;;;;5.27;4.77;;;25.10;82.50;;;;;;5267494;28;20428;-51
2023/09/28 11:24:15;;;;;;;6.17;4.40;;;25.20;82.30;;;;;;5245481;28;20958;-53
2023/09/28 11:26:47;;;;;;;6.30;4.00;;;25.20;81.10;;;;;;5250612;28;20439;-54
2023/09/28 11:29:19;;;;;;;4.20;3.90;;;25.30;79.70;;;;;;5250331;28;20503;-50
2023/09/28 11:31:52;;;;;;;9.63;4.67;;;25.30;80.70;;;;;;5245033;28;20528;-52
2023/09/28 11:34:37;;;;;;;4.60;4.20;;;25.30;80.70;;;;;;5241573;28;20440;-51
2023/09/28 11:37:13;;;;;;;6.17;4.93;;;25.40;80.30;;;;;;5245799;28;20456;-51
2023/09/28 11:39:44;;;;;;;5.23;4.30;;;25.40;80.90;;;;;;5246173;28;20433;-52
2023/09/28 11:42:15;;;;;;;5.23;4.63;;;25.60;78.70;;;;;;5242929;28;20463;-51
2023/09/28 11:44:46;;;;;;;4.63;4.23;;;25.60;78.00;;;;;;5246877;28;21148;-51
2023/09/28 11:47:21;;;;;;;8.10;4.70;;;25.60;77.20;;;;;;5248674;28;20210;-52
2023/09/28 11:49:52;;;;;;;4.13;3.73;;;25.60;76.30;;;;;;5242026;28;20217;-52
2023/09/28 11:52:23;;;;;;;4.50;4.13;;;25.70;75.90;;;;;;5239739;28;21041;-50
2023/09/28 11:54:54;;;;;;;5.57;3.80;;;25.70;74.30;;;;;;5241327;28;20186;-52
2023/09/28 11:57:26;;;;;;;6.77;3.17;;;25.70;73.50;;;;;;5244606;28;21020;-51
2023/09/28 11:59:57;;;;;;;3.17;2.97;;;25.90;73.20;;;;;;5237241;28;20469;-51
2023/09/28 12:02:28;;;;;;;5.73;3.50;;;26.10;72.20;;;;;;5249377;28;20476;-52
2023/09/28 12:05:00;;;;;;;11.80;4.30;;;26.20;70.90;;;;;;5249571;28;20182;-51
2023/09/28 12:07:31;;;;;;;7.03;4.57;;;26.30;69.70;;;;;;5248928;28;20456;-51
2023/09/28 12:10:04;;;;;;;8.40;3.90;;;26.30;69.30;;;;;;5246736;28;20468;-51
2023/09/28 12:12:36;;;;;;;6.00;3.97;;;26.00;69.60;;;;;;5247356;28;20708;-52
2023/09/28 12:15:11;;;;;;;5.13;3.93;;;25.90;70.20;;;;;;5245109;28;20445;-51
2023/09/28 12:17:42;;;;;;;3.93;3.60;;;25.80;70.00;;;;;;5240728;28;20572;-51
2023/09/28 12:20:16;;;;;;;3.67;3.40;;;25.80;70.40;;;;;;5242949;28;20456;-52
2023/09/28 12:22:50;;;;;;;6.03;3.87;;;26.00;70.70;;;;;;5245934;28;20475;-53
2023/09/28 12:25:23;;;;;;;8.10;3.47;;;26.20;70.40;;;;;;5235344;28;20516;-50
2023/09/28 12:27:54;;;;;;;4.47;4.17;;;26.40;69.50;;;;;;5249728;28;20997;-51
2023/09/28 12:30:26;;;;;;;3.67;3.40;;;26.70;69.00;;;;;;5263676;28;20555;-53
2023/09/28 12:32:57;;;;;;;4.27;3.90;;;26.90;68.50;;;;;;5245967;28;20240;-51
2023/09/28 12:35:28;;;;;;;4.47;4.07;;;27.10;68.00;;;;;;5239911;28;20436;-53
2023/09/28 12:38:03;;;;;;;15.83;4.43;;;27.20;67.20;;;;;;5226399;28;20225;-52
2023/09/28 12:40:35;;;;;;;4.37;3.57;;;27.30;66.10;;;;;;5242379;28;20940;-52
2023/09/28 12:43:09;;;;;;;4.40;4.00;;;27.30;65.10;;;;;;5258337;28;20890;-52
2023/09/28 12:45:41;;;;;;;4.30;3.90;;;27.10;65.30;;;;;;5239322;28;20470;-53
2023/09/28 12:48:18;;;;;;;5.67;4.07;;;27.10;65.20;;;;;;5239641;28;20941;-51
2023/09/28 12:50:50;;;;;;;4.83;3.53;;;27.10;65.30;;;;;;5248464;28;20508;-51
2023/09/28 12:53:21;;;;;;;4.10;3.80;;;27.10;64.50;;;;;;5248064;28;20515;-52
2023/09/28 12:55:53;;;;;;;11.07;5.20;;;27.10;64.90;;;;;;5242459;28;20570;-51
2023/09/28 12:58:25;;;;;;;4.20;3.50;;;27.10;65.20;;;;;;5241187;28;20456;-52